createdAt,value
2018-03-22T00:01:59.887Z,22.92
2018-03-22T00:04:28.181Z,23.40
2018-03-22T00:06:55.745Z,22.65
2018-03-22T00:09:23.280Z,24.63
2018-03-22T00:11:51.595Z,24.30
2018-03-22T00:14:19.131Z,23.45
2018-03-22T00:16:46.683Z,23.30
2018-03-22T00:19:14.961Z,24.40
2018-03-22T00:21:43.285Z,24.05
2018-03-22T00:24:11.618Z,23.10
2018-03-22T00:26:39.197Z,24.35
2018-03-22T00:29:06.734Z,22.95
2018-03-22T00:31:35.041Z,25.08
2018-03-22T00:34:02.586Z,24.75
2018-03-22T00:36:30.155Z,23.20
2018-03-22T00:38:57.676Z,25.37
2018-03-22T00:41:25.993Z,22.87
2018-03-22T00:43:53.531Z,26.42
2018-03-22T00:46:21.082Z,23.80
2018-03-22T00:48:49.387Z,24.40
2018-03-22T00:51:16.973Z,25.58
2018-03-22T00:53:44.503Z,24.05
2018-03-22T00:56:12.063Z,26.42
2018-03-22T00:58:39.602Z,24.12
2018-03-22T01:01:07.134Z,24.17
2018-03-22T01:03:34.927Z,24.30
2018-03-22T01:06:02.467Z,25.17
2018-03-22T01:08:30.788Z,24.55
2018-03-22T01:10:58.343Z,25.40
2018-03-22T01:13:25.903Z,28.40
2018-03-22T01:15:53.429Z,25.15
2018-03-22T01:18:21.755Z,27.77
2018-03-22T01:20:49.290Z,25.70
2018-03-22T01:23:16.909Z,24.40
2018-03-22T01:25:45.213Z,25.52
2018-03-22T01:28:12.749Z,25.35
2018-03-22T01:30:43.649Z,25.95
2018-03-22T01:33:11.216Z,27.25
2018-03-22T01:35:38.779Z,26.62
2018-03-22T01:38:06.325Z,26.12
2018-03-22T01:40:33.855Z,24.25
2018-03-22T01:43:01.389Z,25.10
2018-03-22T01:45:29.676Z,26.70
2018-03-22T01:47:57.214Z,24.37
2018-03-22T01:50:25.545Z,24.60
2018-03-22T01:53:05.118Z,23.98
2018-03-22T01:55:32.670Z,25.00
2018-03-22T01:58:00.225Z,20.83
2018-03-22T02:00:27.787Z,19.15
2018-03-22T02:02:55.323Z,19.00
2018-03-22T02:05:22.869Z,19.10
2018-03-22T02:07:50.415Z,18.30
2018-03-22T02:10:17.981Z,17.60
2018-03-22T02:12:45.509Z,16.80
2018-03-22T02:15:13.831Z,16.98
2018-03-22T02:17:41.362Z,20.27
2018-03-22T02:20:08.922Z,19.87
2018-03-22T02:22:36.456Z,19.50
2018-03-22T02:25:04.776Z,21.48
2018-03-22T02:27:32.300Z,21.55
2018-03-22T02:30:00.623Z,22.08
2018-03-22T02:32:28.173Z,20.40
2018-03-22T02:34:55.759Z,22.23
2018-03-22T02:37:23.285Z,21.25
2018-03-22T02:39:50.860Z,22.33
2018-03-22T02:42:18.563Z,23.83
2018-03-22T02:44:46.135Z,23.75
2018-03-22T02:47:14.462Z,24.20
2018-03-22T02:49:42.042Z,24.12
2018-03-22T02:52:09.573Z,24.37
2018-03-22T02:54:37.123Z,23.58
2018-03-22T02:57:04.668Z,23.85
2018-03-22T02:59:32.218Z,24.05
2018-03-22T03:02:00.557Z,24.00
2018-03-22T03:04:28.103Z,25.67
2018-03-22T03:06:55.642Z,25.05
2018-03-22T03:09:23.190Z,24.02
2018-03-22T03:11:50.753Z,24.87
2018-03-22T03:14:18.273Z,24.50
2018-03-22T03:16:46.605Z,25.95
2018-03-22T03:19:14.143Z,25.40
2018-03-22T03:21:41.691Z,23.60
2018-03-22T03:24:09.239Z,24.25
2018-03-22T03:26:37.555Z,25.92
2018-03-22T03:29:05.073Z,25.48
2018-03-22T03:31:33.402Z,27.00
2018-03-22T03:34:00.944Z,24.85
2018-03-22T03:36:28.505Z,24.23
2018-03-22T03:38:56.048Z,26.40
2018-03-22T03:41:23.612Z,24.98
2018-03-22T03:43:51.165Z,24.60
2018-03-22T03:46:18.732Z,25.88
2018-03-22T03:48:46.280Z,24.25
2018-03-22T03:51:13.822Z,25.70
2018-03-22T03:53:42.133Z,25.60
2018-03-22T03:56:09.695Z,23.95
2018-03-22T03:58:37.249Z,25.10
2018-03-22T04:01:04.797Z,24.73
2018-03-22T04:03:32.365Z,24.37
2018-03-22T04:05:59.911Z,24.70
2018-03-22T04:08:27.455Z,25.52
2018-03-22T04:10:55.770Z,26.30
2018-03-22T04:13:23.337Z,27.00
2018-03-22T04:15:50.871Z,25.90
2018-03-22T04:18:18.417Z,27.50
2018-03-22T04:20:45.981Z,25.65
2018-03-22T04:23:13.526Z,27.70
2018-03-22T04:25:41.864Z,27.00
2018-03-22T04:28:09.419Z,28.67
2018-03-22T04:30:36.949Z,26.67
2018-03-22T04:33:04.485Z,28.27
2018-03-22T04:35:32.772Z,26.70
2018-03-22T04:38:00.322Z,27.48
2018-03-22T04:40:28.620Z,25.90
2018-03-22T04:42:56.197Z,26.25
2018-03-22T04:45:23.754Z,25.55
2018-03-22T04:47:51.278Z,25.98
2018-03-22T04:50:19.594Z,27.65
2018-03-22T04:52:47.176Z,27.42
2018-03-22T04:55:14.731Z,24.67
2018-03-22T04:57:42.254Z,29.67
2018-03-22T05:00:09.822Z,28.58
2018-03-22T05:02:37.373Z,26.27
2018-03-22T05:05:04.941Z,28.52
2018-03-22T05:07:32.498Z,27.37
2018-03-22T05:10:00.037Z,29.23
2018-03-22T05:12:27.561Z,29.20
2018-03-22T05:14:55.110Z,28.27
2018-03-22T05:17:23.551Z,32.55
2018-03-22T05:19:51.098Z,31.67
2018-03-22T05:22:18.649Z,32.58
2018-03-22T05:24:46.229Z,29.80
2018-03-22T05:27:13.779Z,28.65
2018-03-22T05:29:41.359Z,29.35
2018-03-22T05:32:08.897Z,29.60
2018-03-22T05:34:36.433Z,30.08
2018-03-22T05:37:04.732Z,30.00
2018-03-22T05:39:32.280Z,29.50
2018-03-22T05:41:59.826Z,32.20
2018-03-22T05:44:28.137Z,31.08
2018-03-22T05:46:55.681Z,31.58
2018-03-22T05:49:23.231Z,31.98
2018-03-22T05:51:50.769Z,32.55
2018-03-22T05:54:19.133Z,33.08
2018-03-22T05:56:46.678Z,33.03
2018-03-22T05:59:14.220Z,33.72
2018-03-22T06:01:41.767Z,33.67
2018-03-22T06:04:09.313Z,34.35
2018-03-22T06:06:36.856Z,35.40
2018-03-22T06:09:05.173Z,36.15
2018-03-22T06:11:32.734Z,35.53
2018-03-22T06:14:00.271Z,34.40
2018-03-22T06:16:27.835Z,37.70
2018-03-22T06:18:55.397Z,38.90
2018-03-22T06:21:22.979Z,38.65
2018-03-22T06:23:50.516Z,39.17
2018-03-22T06:26:18.065Z,42.58
2018-03-22T06:28:45.626Z,39.22
2018-03-22T06:31:13.201Z,42.97
2018-03-22T06:33:40.735Z,44.45
2018-03-22T06:36:08.289Z,46.17
2018-03-22T06:38:35.876Z,48.20
2018-03-22T06:41:03.433Z,46.58
2018-03-22T06:43:30.993Z,42.47
2018-03-22T06:45:58.522Z,43.15
2018-03-22T06:48:26.833Z,44.20
2018-03-22T06:50:54.367Z,45.67
2018-03-22T06:53:21.905Z,44.15
2018-03-22T06:55:50.197Z,44.53
2018-03-22T06:58:17.766Z,46.37
2018-03-22T07:00:45.328Z,44.88
2018-03-22T07:03:12.887Z,44.33
2018-03-22T07:05:40.414Z,44.88
2018-03-22T07:08:08.733Z,47.83
2018-03-22T07:10:36.275Z,45.50
2018-03-22T07:13:03.835Z,44.40
2018-03-22T07:15:31.353Z,42.78
2018-03-22T07:18:00.430Z,44.42
2018-03-22T07:20:27.969Z,42.03
2018-03-22T07:22:55.539Z,41.03
2018-03-22T07:25:23.070Z,41.03
2018-03-22T07:27:50.615Z,42.40
2018-03-22T07:30:18.154Z,42.83
2018-03-22T07:32:46.459Z,43.47
2018-03-22T07:35:13.997Z,43.53
2018-03-22T07:37:42.296Z,43.47
2018-03-22T07:40:09.856Z,42.28
2018-03-22T07:42:37.389Z,42.03
2018-03-22T07:45:09.686Z,42.60
2018-03-22T07:47:37.984Z,42.88
2018-03-22T07:50:05.548Z,42.33
2018-03-22T07:52:33.092Z,39.03
2018-03-22T07:55:00.639Z,38.45
2018-03-22T07:57:28.193Z,40.70
2018-03-22T07:59:55.795Z,46.78
2018-03-22T08:02:23.348Z,40.30
2018-03-22T08:04:50.931Z,40.50
2018-03-22T08:07:18.486Z,39.55
2018-03-22T08:09:46.045Z,39.25
2018-03-22T08:12:13.599Z,37.95
2018-03-22T08:14:41.183Z,37.05
2018-03-22T08:17:09.505Z,39.50
2018-03-22T08:19:37.100Z,45.45
2018-03-22T08:22:04.631Z,38.75
2018-03-22T08:24:32.204Z,35.95
2018-03-22T08:26:59.746Z,33.88
2018-03-22T08:29:27.266Z,31.45
2018-03-22T08:31:55.595Z,30.20
2018-03-22T08:34:23.127Z,29.00
2018-03-22T08:36:50.681Z,27.77
2018-03-22T08:39:18.236Z,26.17
2018-03-22T08:41:45.975Z,27.05
2018-03-22T08:44:14.279Z,23.58
2018-03-22T08:46:41.841Z,22.33
2018-03-22T08:49:09.479Z,24.80
2018-03-22T08:51:37.826Z,21.35
2018-03-22T08:54:06.994Z,22.02
2018-03-22T08:56:34.557Z,20.83
2018-03-22T08:59:02.125Z,20.50
2018-03-22T09:01:29.683Z,20.60
2018-03-22T09:03:57.232Z,18.80
2018-03-22T09:06:24.787Z,18.95
2018-03-22T09:08:52.312Z,23.60
2018-03-22T09:11:20.612Z,21.55
2018-03-22T09:13:48.157Z,22.40
2018-03-22T09:16:15.722Z,21.30
2018-03-22T09:18:43.285Z,23.35
2018-03-22T09:21:10.829Z,22.70
2018-03-22T09:23:39.151Z,23.10
2018-03-22T09:26:06.683Z,20.77
2018-03-22T09:28:34.243Z,20.27
2018-03-22T09:31:01.775Z,21.15
2018-03-22T09:33:30.087Z,20.95
2018-03-22T09:35:57.605Z,22.23
2018-03-22T09:38:25.923Z,18.80
2018-03-22T09:40:53.455Z,23.33
2018-03-22T09:43:21.025Z,20.08
2018-03-22T09:45:48.545Z,21.20
2018-03-22T09:48:16.092Z,20.10
2018-03-22T09:50:43.627Z,19.80
2018-03-22T09:53:11.194Z,20.48
2018-03-22T09:55:38.730Z,21.55
2018-03-22T09:58:06.303Z,20.40
2018-03-22T10:00:33.826Z,19.65
2018-03-22T10:03:01.385Z,18.95
2018-03-22T10:05:28.915Z,19.60
2018-03-22T10:07:56.470Z,19.27
2018-03-22T10:10:24.017Z,21.60
2018-03-22T10:12:51.554Z,21.12
2018-03-22T10:15:19.088Z,19.10
2018-03-22T10:17:46.661Z,18.42
2018-03-22T10:20:14.201Z,19.35
2018-03-22T10:22:41.721Z,20.25
2018-03-22T10:25:09.257Z,20.55
2018-03-22T10:27:36.805Z,20.45
2018-03-22T10:30:04.350Z,19.92
2018-03-22T10:32:31.869Z,20.00
2018-03-22T10:35:00.176Z,20.23
2018-03-22T10:37:27.793Z,19.85
2018-03-22T10:39:56.096Z,21.00
2018-03-22T10:42:24.415Z,20.33
2018-03-22T10:44:51.971Z,19.95
2018-03-22T10:47:19.511Z,20.50
2018-03-22T10:49:47.079Z,20.88
2018-03-22T10:52:14.613Z,19.90
2018-03-22T10:54:42.166Z,18.98
2018-03-22T10:57:10.453Z,20.12
2018-03-22T10:59:37.988Z,18.08
2018-03-22T11:02:06.302Z,23.65
2018-03-22T11:04:33.841Z,20.00
2018-03-22T11:07:01.374Z,20.60
2018-03-22T11:09:28.971Z,20.15
2018-03-22T11:11:56.503Z,20.77
2018-03-22T11:14:24.794Z,21.42
2018-03-22T11:16:52.415Z,22.20
2018-03-22T11:19:19.938Z,22.80
2018-03-22T11:21:47.470Z,20.40
2018-03-22T11:24:15.027Z,19.05
2018-03-22T11:26:42.592Z,20.05
2018-03-22T11:29:10.131Z,21.42
2018-03-22T11:31:38.435Z,19.92
2018-03-22T11:34:05.983Z,19.30
2018-03-22T11:36:33.549Z,18.80
2018-03-22T11:39:01.077Z,19.30
2018-03-22T11:41:28.629Z,19.73
2018-03-22T11:43:56.166Z,20.58
2018-03-22T11:46:23.726Z,21.27
2018-03-22T11:48:52.769Z,20.20
2018-03-22T11:51:21.097Z,22.25
2018-03-22T11:53:48.698Z,21.83
2018-03-22T11:56:16.208Z,21.87
2018-03-22T11:58:43.737Z,22.42
2018-03-22T12:01:11.270Z,22.17
2018-03-22T12:03:39.595Z,22.98
2018-03-22T12:06:07.155Z,25.73
2018-03-22T12:08:34.709Z,24.00
2018-03-22T12:11:02.269Z,23.40
2018-03-22T12:13:29.807Z,25.33
2018-03-22T12:15:57.351Z,25.50
2018-03-22T12:18:25.667Z,25.67
2018-03-22T12:20:53.193Z,27.40
2018-03-22T12:23:20.750Z,25.70
2018-03-22T12:25:48.287Z,26.60
2018-03-22T12:28:15.832Z,27.10
2018-03-22T12:30:43.370Z,28.50
2018-03-22T12:33:11.673Z,28.75
2018-03-22T12:35:39.203Z,28.77
2018-03-22T12:38:06.763Z,29.35
2018-03-22T12:40:34.313Z,30.02
2018-03-22T12:43:01.853Z,29.90
2018-03-22T12:45:29.391Z,32.20
2018-03-22T12:47:57.729Z,31.08
2018-03-22T12:50:26.769Z,31.37
2018-03-22T12:52:54.324Z,31.52
2018-03-22T12:55:21.864Z,33.83
2018-03-22T12:57:49.426Z,32.00
2018-03-22T13:00:17.715Z,36.42
2018-03-22T13:02:46.025Z,36.33
2018-03-22T13:05:13.541Z,35.42
2018-03-22T13:07:41.858Z,35.25
2018-03-22T13:10:09.401Z,36.05
2018-03-22T13:12:36.944Z,37.10
2018-03-22T13:15:05.259Z,36.75
2018-03-22T13:17:32.773Z,36.35
2018-03-22T13:20:01.105Z,37.05
2018-03-22T13:22:28.630Z,37.63
2018-03-22T13:24:56.179Z,43.47
2018-03-22T13:27:23.716Z,41.10
2018-03-22T13:29:51.280Z,35.45
2018-03-22T13:32:19.572Z,38.10
2018-03-22T13:34:47.869Z,38.15
2018-03-22T13:37:15.401Z,41.78
2018-03-22T13:39:43.740Z,38.47
2018-03-22T13:42:11.275Z,39.78
2018-03-22T13:44:38.827Z,36.58
2018-03-22T13:47:06.353Z,37.00
2018-03-22T13:49:34.675Z,39.60
2018-03-22T13:52:02.210Z,38.30
2018-03-22T13:54:29.794Z,38.38
2018-03-22T13:56:57.343Z,40.05
2018-03-22T13:59:24.911Z,38.25
2018-03-22T14:01:52.481Z,41.10
2018-03-22T14:04:20.034Z,40.45
2018-03-22T14:06:47.591Z,42.55
2018-03-22T14:09:15.136Z,40.58
2018-03-22T14:11:42.702Z,39.28
2018-03-22T14:14:10.225Z,39.95
2018-03-22T14:16:38.549Z,42.20
2018-03-22T14:19:06.087Z,40.50
2018-03-22T14:21:33.658Z,40.75
2018-03-22T14:24:01.206Z,41.95
2018-03-22T14:26:28.763Z,40.58
2018-03-22T14:28:56.328Z,38.92
2018-03-22T14:31:23.893Z,35.60
2018-03-22T14:33:51.446Z,37.92
2018-03-22T14:36:19.003Z,37.47
2018-03-22T14:38:46.549Z,38.92
2018-03-22T14:41:14.283Z,39.08
2018-03-22T14:43:42.714Z,37.63
2018-03-22T14:46:10.273Z,38.70
2018-03-22T14:48:37.815Z,38.20
2018-03-22T14:51:05.371Z,39.30
2018-03-22T14:53:32.912Z,39.53
2018-03-22T14:56:01.216Z,36.78
2018-03-22T14:58:28.786Z,41.63
2018-03-22T15:00:56.337Z,42.00
2018-03-22T15:03:23.885Z,41.17
2018-03-22T15:05:51.446Z,40.72
2018-03-22T15:08:19.099Z,41.35
2018-03-22T15:10:46.657Z,42.90
2018-03-22T15:13:14.219Z,41.97
2018-03-22T15:15:41.756Z,42.62
2018-03-22T15:18:10.098Z,41.65
2018-03-22T15:20:37.649Z,40.40
2018-03-22T15:23:05.197Z,41.28
2018-03-22T15:25:32.735Z,43.75
2018-03-22T15:28:00.293Z,43.72
2018-03-22T15:30:27.851Z,44.70
2018-03-22T15:32:55.401Z,39.40
2018-03-22T15:35:22.948Z,40.00
2018-03-22T15:40:25.307Z,39.00
2018-03-22T15:42:52.853Z,42.15
2018-03-22T15:45:20.396Z,43.28
2018-03-22T15:47:47.961Z,41.45
2018-03-22T15:50:15.493Z,40.92
2018-03-22T15:52:43.035Z,40.00
2018-03-22T15:55:11.374Z,42.47
2018-03-22T15:57:39.013Z,40.53
2018-03-22T16:00:06.585Z,37.75
2018-03-22T16:02:34.120Z,38.13
2018-03-22T16:05:01.684Z,40.80
2018-03-22T16:07:29.209Z,37.97
2018-03-22T16:09:57.532Z,38.78
2018-03-22T16:12:25.067Z,37.97
2018-03-22T16:14:52.642Z,36.80
2018-03-22T16:17:20.286Z,37.15
2018-03-22T16:19:47.827Z,37.13
2018-03-22T16:22:16.154Z,37.40
2018-03-22T16:24:43.703Z,35.88
2018-03-22T16:27:11.463Z,38.00
2018-03-22T16:29:39.045Z,37.42
2018-03-22T16:32:06.583Z,37.00
2018-03-22T16:34:34.133Z,36.97
2018-03-22T16:37:01.682Z,36.97
2018-03-22T16:39:29.221Z,36.33
2018-03-22T16:41:57.510Z,35.42
2018-03-22T16:44:25.090Z,35.13
2018-03-22T16:46:52.652Z,35.25
2018-03-22T16:49:20.193Z,37.78
2018-03-22T16:51:47.738Z,36.45
2018-03-22T16:54:16.052Z,36.65
2018-03-22T16:56:43.611Z,34.53
2018-03-22T16:59:11.151Z,37.17
2018-03-22T17:01:38.717Z,37.15
2018-03-22T17:04:06.268Z,36.40
2018-03-22T17:06:33.831Z,35.90
2018-03-22T17:09:01.390Z,36.10
2018-03-22T17:11:28.965Z,36.78
2018-03-22T17:13:56.520Z,33.17
2018-03-22T17:16:24.071Z,35.67
2018-03-22T17:18:51.596Z,33.67
2018-03-22T17:21:19.162Z,37.75
2018-03-22T17:23:47.481Z,33.22
2018-03-22T17:26:15.021Z,34.53
2018-03-22T17:28:42.601Z,37.47
2018-03-22T17:31:10.157Z,37.20
2018-03-22T17:33:37.769Z,34.33
2018-03-22T17:36:05.333Z,33.15
2018-03-22T17:38:32.953Z,35.05
2018-03-22T17:41:00.483Z,39.70
2018-03-22T17:43:28.054Z,38.63
2018-03-22T17:45:55.601Z,34.15
2018-03-22T17:48:23.293Z,34.65
2018-03-22T17:50:50.841Z,34.20
2018-03-22T17:53:18.400Z,31.52
2018-03-22T17:55:45.941Z,33.45
2018-03-22T17:58:13.513Z,33.95
2018-03-22T18:00:41.064Z,33.28
2018-03-22T18:03:08.615Z,31.70
2018-03-22T18:05:36.155Z,34.60
2018-03-22T18:08:04.486Z,35.40
2018-03-22T18:10:32.013Z,35.90
2018-03-22T18:12:59.583Z,35.72
2018-03-22T18:15:27.141Z,34.70
2018-03-22T18:17:54.695Z,33.15
2018-03-22T18:20:22.217Z,32.58
2018-03-22T18:22:49.811Z,32.13
2018-03-22T18:25:17.315Z,32.47
2018-03-22T18:27:44.857Z,31.25
2018-03-22T18:30:12.400Z,31.90
2018-03-22T18:32:39.991Z,31.42
2018-03-22T18:35:07.545Z,29.70
2018-03-22T18:37:35.090Z,29.10
2018-03-22T18:40:02.636Z,31.52
2018-03-22T18:42:30.174Z,28.05
2018-03-22T18:44:57.754Z,25.88
2018-03-22T18:47:25.290Z,27.08
2018-03-22T18:49:53.613Z,25.27
2018-03-22T18:52:21.165Z,27.90
2018-03-22T18:54:48.721Z,26.00
2018-03-22T18:57:16.262Z,28.30
2018-03-22T18:59:43.833Z,27.67
2018-03-22T19:02:11.371Z,27.35
2018-03-22T19:04:38.924Z,27.02
2018-03-22T19:07:06.478Z,25.65
2018-03-22T19:09:34.053Z,24.50
2018-03-22T19:12:01.581Z,26.55
2018-03-22T19:14:29.903Z,26.52
2018-03-22T19:16:57.438Z,25.33
2018-03-22T19:19:24.999Z,27.20
2018-03-22T19:21:53.310Z,25.45
2018-03-22T19:24:20.864Z,25.75
2018-03-22T19:26:48.407Z,25.62
2018-03-22T19:29:15.991Z,25.77
2018-03-22T19:31:43.532Z,26.98
2018-03-22T19:34:11.102Z,25.65
2018-03-22T19:36:38.669Z,26.55
2018-03-22T19:39:06.222Z,24.98
2018-03-22T19:41:33.758Z,25.92
2018-03-22T19:44:01.301Z,28.48
2018-03-22T19:46:29.626Z,26.08
2018-03-22T19:48:57.927Z,26.95
2018-03-22T19:51:25.491Z,27.50
2018-03-22T19:53:53.059Z,29.65
2018-03-22T19:56:20.597Z,31.58
2018-03-22T19:58:48.131Z,29.67
2018-03-22T20:01:15.684Z,28.80
2018-03-22T20:03:43.209Z,27.50
2018-03-22T20:06:11.545Z,29.70
2018-03-22T20:08:39.116Z,27.70
2018-03-22T20:11:06.681Z,27.05
2018-03-22T20:13:34.249Z,25.80
2018-03-22T20:16:01.818Z,32.47
2018-03-22T20:18:30.113Z,30.65
2018-03-22T20:20:57.685Z,27.90
2018-03-22T20:23:25.250Z,27.95
2018-03-22T20:25:52.778Z,27.35
2018-03-22T20:28:21.102Z,28.38
2018-03-22T20:30:48.654Z,27.08
2018-03-22T20:33:16.230Z,27.30
2018-03-22T20:35:43.797Z,27.60
2018-03-22T20:38:11.355Z,27.75
2018-03-22T20:40:38.914Z,26.42
2018-03-22T20:43:06.467Z,25.35
2018-03-22T20:45:33.995Z,27.25
2018-03-22T20:48:01.571Z,28.17
2018-03-22T20:50:29.141Z,26.25
2018-03-22T20:52:56.713Z,25.70
2018-03-22T20:55:24.299Z,26.20
2018-03-22T20:57:52.624Z,29.45
2018-03-22T21:00:20.157Z,27.92
2018-03-22T21:02:48.462Z,28.70
2018-03-22T21:05:16.022Z,26.87
2018-03-22T21:07:43.595Z,29.00
2018-03-22T21:12:45.121Z,25.55
2018-03-22T21:15:12.660Z,29.98
2018-03-22T21:17:40.969Z,26.25
2018-03-22T21:20:08.516Z,25.27
2018-03-22T21:22:36.083Z,24.12
2018-03-22T21:25:03.632Z,23.00
2018-03-22T21:27:31.184Z,21.58
2018-03-22T21:29:59.503Z,19.87
2018-03-22T21:32:27.035Z,19.80
2018-03-22T21:34:54.595Z,19.83
2018-03-22T21:37:22.130Z,19.27
2018-03-22T21:39:50.441Z,18.85
2018-03-22T21:42:17.982Z,17.77
2018-03-22T21:44:45.539Z,16.48
2018-03-22T21:47:24.970Z,15.70
2018-03-22T21:49:53.283Z,15.35
2018-03-22T21:52:32.615Z,15.52
2018-03-22T21:55:00.181Z,16.48
2018-03-22T21:57:27.720Z,15.25
2018-03-22T21:59:55.270Z,16.08
2018-03-22T22:02:22.817Z,19.67
2018-03-22T22:04:51.139Z,17.77
2018-03-22T22:07:18.673Z,20.15
2018-03-22T22:09:46.250Z,20.80
2018-03-22T22:12:13.783Z,21.27
2018-03-22T22:14:41.339Z,21.55
2018-03-22T22:17:08.883Z,21.10
2018-03-22T22:19:37.193Z,20.20
2018-03-22T22:22:04.731Z,20.15
2018-03-22T22:24:33.060Z,18.92
2018-03-22T22:27:00.655Z,21.25
2018-03-22T22:29:28.178Z,20.98
2018-03-22T22:31:55.729Z,20.90
2018-03-22T22:34:23.285Z,20.83
2018-03-22T22:36:50.842Z,20.00
2018-03-22T22:39:18.385Z,21.77
2018-03-22T22:41:45.925Z,21.20
2018-03-22T22:44:13.464Z,19.48
2018-03-22T22:46:41.810Z,21.40
2018-03-22T22:49:09.349Z,18.20
2018-03-22T22:51:36.921Z,18.60
2018-03-22T22:54:04.482Z,17.55
2018-03-22T22:56:32.038Z,18.02
2018-03-22T22:58:59.575Z,18.52
2018-03-22T23:01:27.134Z,19.42
2018-03-22T23:03:54.675Z,18.40
2018-03-22T23:06:22.244Z,16.90
2018-03-22T23:08:49.779Z,16.35
2018-03-22T23:11:18.121Z,17.05
2018-03-22T23:13:45.670Z,16.75
2018-03-22T23:16:13.227Z,17.50
2018-03-22T23:18:40.748Z,18.00
2018-03-22T23:21:08.334Z,15.68
2018-03-22T23:23:35.871Z,16.62
2018-03-22T23:26:03.427Z,19.73
2018-03-22T23:28:30.981Z,17.02
2018-03-22T23:30:58.519Z,16.08
2018-03-22T23:33:26.086Z,16.77
2018-03-22T23:35:54.391Z,16.83
2018-03-22T23:38:22.086Z,16.58
2018-03-22T23:40:49.609Z,16.83
2018-03-22T23:43:17.159Z,14.82
2018-03-22T23:45:44.718Z,15.55
2018-03-22T23:48:12.274Z,14.13
2018-03-22T23:50:39.842Z,16.00
2018-03-22T23:53:07.395Z,16.95
2018-03-22T23:55:34.935Z,17.42
2018-03-22T23:58:03.273Z,16.90
